Costa Fascinosa — ICPO — position and weather

sailwx.info

Track history (hours):
 
Tides and Currents Weather Stations Pressure Air Temp Water Temp Dewpoint Dewpoint Depression Visibility Wind Speed Wind Dir Waves Ship Positions

Costa Fascinosa

Last reported at 2018-Sep-24 20:30 UTC. Time now 2018-Sep-24 21:00 UTC.
Position N 40°25' E 014°06'.

Length 291 m; draft 8.3 m.

Type: Passenger vessel. MMSI: 247313500.

Date/timePositionNaut miles runAvg speedWind from/ knotsBaromVisibWave heightAir tempDewpointWater temp
2018-Sep-24 20:30N 40°25' E 014°06'712.2
2018-Sep-24 19:56N 40°32' E 014°08'512.1
2018-Sep-24 19:31N 40°37' E 014°10'512.1
2018-Sep-24 19:03N 40°42' E 014°13'112.3
2018-Sep-24 19:00N 40°42' E 014°13'611.9
2018-Sep-24 18:31N 40°48' E 014°16'2 5.1
2018-Sep-24 18:03N 40°50' E 014°16'0 0.0
2018-Sep-24 17:58N 40°50' E 014°16'0 0.0
2018-Sep-24 17:28N 40°50' E 014°16'0 0.0
2018-Sep-24 17:01N 40°50' E 014°16'0 0.0
2018-Sep-24 16:58N 40°50' E 014°16'0 0.0
2018-Sep-24 16:25N 40°50' E 014°16'0 0.0
2018-Sep-24 16:01N 40°50' E 014°16'0 0.1
2018-Sep-24 15:58N 40°50' E 014°16'0 0.0
2018-Sep-24 15:28N 40°50' E 014°16'0 0.0
2018-Sep-24 15:01N 40°50' E 014°16'0 0.0
2018-Sep-24 14:58N 40°50' E 014°16'0 0.0
2018-Sep-24 14:27N 40°50' E 014°16'0 0.0
2018-Sep-24 14:00N 40°50' E 014°16'0 0.0
2018-Sep-24 13:30N 40°50' E 014°16'0 0.0
2018-Sep-24 13:03N 40°50' E 014°16'0 0.0
2018-Sep-24 13:00N 40°50' E 014°16'0 0.0
2018-Sep-24 12:30N 40°50' E 014°16'0 0.0
2018-Sep-24 12:02N 40°50' E 014°16'0 0.0
2018-Sep-24 11:59N 40°50' E 014°16'0 0.0
2018-Sep-24 11:26N 40°50' E 014°16'0 0.0
2018-Sep-24 11:03N 40°50' E 014°16'0 0.0
2018-Sep-24 11:00N 40°50' E 014°16'1 2.4
2018-Sep-24 10:30N 40°49' E 014°17'510.7
2018-Sep-24 10:03N 40°45' E 014°18'116.8
2018-Sep-24 10:00N 40°44' E 014°17'918.6
2018-Sep-24 09:30N 40°39' E 014°07'1021.0
2018-Sep-24 09:03N 40°38' E 013°55'120.8
2018-Sep-24 09:00N 40°38' E 013°53'1120.8
2018-Sep-24 08:30N 40°40' E 013°40'16820.5
2018-Sep-24 00:20N 42°02' E 010°25'620.3
2018-Sep-24 00:01N 42°06' E 010°18'120.2
2018-Sep-24 00:00N 42°06' E 010°17'3119.5
2018-Sep-23 22:24N 42°29' E 009°49'2120.7
2018-Sep-23 21:22N 42°49' E 009°39'720.7
2018-Sep-23 21:03N 42°55' E 009°37'121.3
2018-Sep-23 21:00N 42°56' E 009°37'1020.4
2018-Sep-23 20:30N 43°06' E 009°32'920.8
2018-Sep-23 20:03N 43°14' E 009°25'120.9
2018-Sep-23 20:00N 43°15' E 009°25'1020.9
2018-Sep-23 19:30N 43°24' E 009°17'920.7
2018-Sep-23 19:03N 43°32' E 009°11'120.6
2018-Sep-23 19:00N 43°33' E 009°10'1020.3
2018-Sep-23 18:31N 43°41' E 009°03'920.2
2018-Sep-23 18:04N 43°49' E 008°56'120.2
2018-Sep-23 18:01N 43°50' E 008°55'1020.4
2018-Sep-23 17:31N 43°58' E 008°47'920.5
2018-Sep-23 17:03N 44°06' E 008°40'120.5
2018-Sep-23 17:00N 44°07' E 008°40'1019.8
2018-Sep-23 16:30N 44°16' E 008°34'4 8.9
2018-Sep-23 16:03N 44°19' E 008°30'0 2.5
2018-Sep-23 16:01N 44°19' E 008°30'1 1.6
2018-Sep-23 15:28N 44°19' E 008°29'0 0.0
2018-Sep-23 15:01N 44°19' E 008°29'0 0.0
2018-Sep-23 14:58N 44°19' E 008°29'0 0.0
2018-Sep-23 14:28N 44°19' E 008°29'0 0.0
2018-Sep-23 13:28N 44°19' E 008°29'0 0.0
2018-Sep-23 13:01N 44°19' E 008°29'0 0.0
2018-Sep-23 12:58N 44°19' E 008°29'0 0.0
2018-Sep-23 12:28N 44°19' E 008°29'0 0.0
2018-Sep-23 12:01N 44°19' E 008°29'0 0.0
2018-Sep-23 11:58N 44°19' E 008°29'0 0.0
2018-Sep-23 11:28N 44°19' E 008°29'0 0.0
2018-Sep-23 11:01N 44°19' E 008°29'0 0.0
2018-Sep-23 10:58N 44°19' E 008°29'0 0.0
2018-Sep-23 10:28N 44°19' E 008°29'0 0.0
2018-Sep-23 10:01N 44°19' E 008°29'0 0.0
2018-Sep-23 09:58N 44°19' E 008°29'0 0.0
2018-Sep-23 09:30N 44°19' E 008°29'0 0.0
2018-Sep-23 09:03N 44°19' E 008°29'0 0.0
2018-Sep-23 09:00N 44°19' E 008°29'0 0.0
2018-Sep-23 08:30N 44°19' E 008°29'0 0.0
2018-Sep-23 08:02N 44°19' E 008°29'0 0.0
2018-Sep-23 07:59N 44°19' E 008°29'0 0.0
2018-Sep-23 07:29N 44°19' E 008°29'0 0.0
2018-Sep-23 07:02N 44°19' E 008°29'0 0.0
2018-Sep-23 06:59N 44°19' E 008°29'0 0.0
2018-Sep-23 06:30N 44°19' E 008°29'1 2.6
2018-Sep-23 06:03N 44°19' E 008°31'0 7.7
2018-Sep-23 06:00N 44°19' E 008°31'510.4
2018-Sep-23 05:31N 44°14' E 008°31'919.8
2018-Sep-23 05:04N 44°06' E 008°26'120.6
2018-Sep-23 05:01N 44°05' E 008°25'1020.2
2018-Sep-23 04:31N 43°56' E 008°18'919.8
2018-Sep-23 04:04N 43°49' E 008°10'119.9
2018-Sep-23 04:01N 43°48' E 008°10'1019.7
2018-Sep-23 03:31N 43°42' E 007°59'919.8
2018-Sep-23 03:04N 43°36' E 007°49'119.8
2018-Sep-23 03:00N 43°36' E 007°48'1020.0
2018-Sep-23 02:31N 43°30' E 007°37'920.2
2018-Sep-23 02:03N 43°25' E 007°27'120.4
2018-Sep-23 02:01N 43°24' E 007°26'1020.5
2018-Sep-23 01:31N 43°18' E 007°14'920.3
2018-Sep-23 01:04N 43°13' E 007°04'120.0
2018-Sep-23 01:01N 43°13' E 007°02'1019.9
2018-Sep-23 00:31N 43°06' E 006°52'6719.9
2018-Sep-22 21:09N 42°33' E 005°33'220.2
2018-Sep-22 21:02N 42°32' E 005°30'120.2
2018-Sep-22 21:00N 42°31' E 005°30'13820.9
2018-Sep-22 14:25N 41°27' E 002°46'821.1
2018-Sep-22 14:01N 41°23' E 002°36'1020.7
2018-Sep-22 13:31N 41°18' E 002°24'919.4
2018-Sep-22 13:03N 41°16' E 002°12'113.9
2018-Sep-22 13:01N 41°16' E 002°12'4 9.0
2018-Sep-22 12:31N 41°21' E 002°10'1 1.6
2018-Sep-22 12:02N 41°21' E 002°10'0 0.0
2018-Sep-22 11:59N 41°21' E 002°10'0 0.0
2018-Sep-22 11:29N 41°21' E 002°10'0 0.0
2018-Sep-22 11:02N 41°21' E 002°10'0 0.0
2018-Sep-22 10:59N 41°21' E 002°10'0 0.0
2018-Sep-22 10:26N 41°21' E 002°10'0 0.0
2018-Sep-22 10:02N 41°21' E 002°10'0 0.0
2018-Sep-22 09:56N 41°21' E 002°10'0 0.0
2018-Sep-22 09:26N 41°21' E 002°10'0 0.0
2018-Sep-22 09:03N 41°21' E 002°10'0 0.0
2018-Sep-22 09:00N 41°21' E 002°10'0 0.0
2018-Sep-22 08:30N 41°21' E 002°10'0 0.0
2018-Sep-22 08:03N 41°21' E 002°10'0 0.0
2018-Sep-22 07:57N 41°21' E 002°10'0 0.0
2018-Sep-22 07:26N 41°21' E 002°10'0 0.0
2018-Sep-22 07:01N 41°21' E 002°10'0 0.0
2018-Sep-22 06:58N 41°21' E 002°10'0 0.0
2018-Sep-22 06:28N 41°21' E 002°10'0 0.0
2018-Sep-22 05:52N 41°21' E 002°10'0 0.2
2018-Sep-22 05:30N 41°21' E 002°10'1 2.5
2018-Sep-22 05:03N 41°20' E 002°10'0 5.6
2018-Sep-22 05:01N 41°20' E 002°10'4 7.7
2018-Sep-22 04:31N 41°16' E 002°12'612.6
2018-Sep-22 04:04N 41°11' E 002°13'114.5
2018-Sep-22 04:01N 41°10' E 002°12'611.8
2018-Sep-22 03:30N 41°04' E 002°12'511.2
2018-Sep-22 03:02N 40°59' E 002°12'111.2
2018-Sep-22 02:55N 40°57' E 002°12'4911.9
2018-Sep-21 22:46N 40°08' E 002°14'412.1
2018-Sep-21 22:27N 40°04' E 002°14'1511.6
2018-Sep-21 21:09N 39°49' E 002°14'111.7
2018-Sep-21 21:02N 39°48' E 002°13'011.8
2018-Sep-21 21:00N 39°47' E 002°13'711.9
2018-Sep-21 20:24N 39°40' E 002°14'1310.8
2018-Sep-21 19:12N 39°28' E 002°21'311.4
2018-Sep-21 18:58N 39°27' E 002°24'511.2
2018-Sep-21 18:30N 39°25' E 002°30'510.9
2018-Sep-21 18:03N 39°27' E 002°35'111.7
2018-Sep-21 18:00N 39°28' E 002°36'510.7
2018-Sep-21 17:30N 39°32' E 002°39'1 3.1
2018-Sep-21 17:03N 39°33' E 002°38'0 0.0
2018-Sep-21 17:00N 39°33' E 002°38'0 0.0
2018-Sep-21 16:30N 39°33' E 002°38'0 0.0
2018-Sep-21 16:03N 39°33' E 002°38'0 0.0
2018-Sep-21 16:00N 39°33' E 002°38'0 0.0
2018-Sep-21 15:30N 39°33' E 002°38'0 0.0
2018-Sep-21 15:03N 39°33' E 002°38'0 0.0
2018-Sep-21 14:58N 39°33' E 002°38'0 0.0
2018-Sep-21 14:28N 39°33' E 002°38'0 0.0
2018-Sep-21 13:25N 39°33' E 002°38'0 0.0
2018-Sep-21 13:01N 39°33' E 002°38'0 0.0
2018-Sep-21 12:58N 39°33' E 002°38'0 0.0
2018-Sep-21 12:28N 39°33' E 002°38'0 0.0
2018-Sep-21 12:01N 39°33' E 002°38'0 0.0
2018-Sep-21 11:58N 39°33' E 002°38'0 0.0
2018-Sep-21 11:28N 39°33' E 002°38'0 0.0
2018-Sep-21 11:01N 39°33' E 002°38'0 0.0
2018-Sep-21 10:58N 39°33' E 002°38'0 0.0
2018-Sep-21 10:25N 39°33' E 002°38'0 0.0
2018-Sep-21 10:02N 39°33' E 002°38'0 0.0
2018-Sep-21 10:00N 39°33' E 002°38'0 0.0
2018-Sep-21 09:26N 39°33' E 002°38'0 0.0
2018-Sep-21 09:02N 39°33' E 002°38'0 0.0
2018-Sep-21 08:59N 39°33' E 002°38'0 0.0
2018-Sep-21 08:29N 39°33' E 002°38'0 0.0
2018-Sep-21 08:02N 39°33' E 002°38'0 0.0
2018-Sep-21 07:59N 39°33' E 002°38'0 0.0
2018-Sep-21 07:29N 39°33' E 002°38'0 0.0
2018-Sep-21 07:03N 39°33' E 002°38'0 0.1
2018-Sep-21 07:00N 39°33' E 002°38'1 3.0
2018-Sep-21 06:30N 39°32' E 002°39'511.6
2018-Sep-21 06:03N 39°27' E 002°35'115.8
2018-Sep-21 06:00N 39°27' E 002°35'816.8
2018-Sep-21 05:30N 39°19' E 002°29'817.3
2018-Sep-21 05:03N 39°13' E 002°24'117.4
2018-Sep-21 05:00N 39°12' E 002°23'2517.2
2018-Sep-21 03:34N 38°59' E 001°56'917.5
2018-Sep-21 03:04N 38°57' E 001°45'317.4
2018-Sep-21 02:53N 38°56' E 001°41'717.4
2018-Sep-21 02:30N 38°54' E 001°33'510.5
2018-Sep-21 02:03N 38°54' E 001°27'0 1.3
2018-Sep-21 01:47N 38°54' E 001°27'0 0.0
2018-Sep-21 01:29N 38°54' E 001°27'0 0.0
2018-Sep-21 01:01N 38°54' E 001°27'0 0.0
2018-Sep-21 00:58N 38°54' E 001°27'0 0.0
2018-Sep-21 00:28N 38°54' E 001°27'0 0.0
2018-Sep-21 00:01N 38°54' E 001°27'0 0.0
2018-Sep-20 23:58N 38°54' E 001°27'0 0.0
2018-Sep-20 23:28N 38°54' E 001°27'0 0.0
2018-Sep-20 23:01N 38°54' E 001°27'0 0.0
2018-Sep-20 22:55N 38°54' E 001°27'0 0.0
2018-Sep-20 22:28N 38°54' E 001°27'0 0.0
2018-Sep-20 22:01N 38°54' E 001°27'0 0.0
2018-Sep-20 21:58N 38°54' E 001°27'0 0.0
2018-Sep-20 21:28N 38°54' E 001°27'0 0.0
2018-Sep-20 21:01N 38°54' E 001°27'0 0.0
2018-Sep-20 20:58N 38°54' E 001°27'0 0.0
2018-Sep-20 20:28N 38°54' E 001°27'0 0.0
2018-Sep-20 20:01N 38°54' E 001°27'0 0.0
2018-Sep-20 19:58N 38°54' E 001°27'0 0.0
2018-Sep-20 19:28N 38°54' E 001°27'0 0.0
2018-Sep-20 19:01N 38°54' E 001°27'0 0.0
2018-Sep-20 18:58N 38°54' E 001°27'0 0.0
2018-Sep-20 18:28N 38°54' E 001°27'0 0.0
2018-Sep-20 18:03N 38°54' E 001°27'0 0.0
2018-Sep-20 18:00N 38°54' E 001°27'0 0.0
2018-Sep-20 17:30N 38°54' E 001°27'0 0.0
2018-Sep-20 17:02N 38°54' E 001°27'0 0.0
2018-Sep-20 16:59N 38°54' E 001°27'0 0.0
2018-Sep-20 16:29N 38°54' E 001°27'0 0.0
2018-Sep-20 16:02N 38°54' E 001°27'0 0.0
2018-Sep-20 15:59N 38°54' E 001°27'0 0.0
2018-Sep-20 15:29N 38°54' E 001°27'0 0.0
2018-Sep-20 15:02N 38°54' E 001°27'0 0.0
2018-Sep-20 14:59N 38°54' E 001°27'0 0.0
2018-Sep-20 14:02N 38°54' E 001°27'0 0.0
2018-Sep-20 13:59N 38°54' E 001°27'0 0.0
2018-Sep-20 13:29N 38°54' E 001°27'0 0.0
2018-Sep-20 13:03N 38°54' E 001°27'0 0.0
2018-Sep-20 13:00N 38°54' E 001°27'0 0.0
2018-Sep-20 12:30N 38°54' E 001°27'0 0.0
2018-Sep-20 12:03N 38°54' E 001°27'0 0.0
2018-Sep-20 11:57N 38°54' E 001°27'0 0.0
2018-Sep-20 11:30N 38°54' E 001°27'0 0.0
2018-Sep-20 11:03N 38°54' E 001°27'0 0.0
2018-Sep-20 10:57N 38°54' E 001°27'0 0.0
2018-Sep-20 10:29N 38°54' E 001°27'0 0.0
2018-Sep-20 10:02N 38°54' E 001°27'0 0.0
2018-Sep-20 09:59N 38°54' E 001°27'0 0.0
2018-Sep-20 09:29N 38°54' E 001°27'0 0.0
2018-Sep-20 09:02N 38°54' E 001°27'0 0.0
2018-Sep-20 08:59N 38°54' E 001°27'0 0.0
2018-Sep-20 08:29N 38°54' E 001°27'0 0.0
2018-Sep-20 08:02N 38°54' E 001°27'0 0.0
2018-Sep-20 07:59N 38°54' E 001°27'0 0.0
2018-Sep-20 07:29N 38°54' E 001°27'0 0.0
2018-Sep-20 07:01N 38°54' E 001°27'0 0.0
2018-Sep-20 06:58N 38°54' E 001°27'1 1.3
2018-Sep-20 06:27N 38°54' E 001°27'4 7.4
2018-Sep-20 05:53N 38°51' E 001°30'52915.3
2018-Sep-18 19:14N 38°19' E 012°46'517.7
2018-Sep-18 18:57N 38°18' E 012°52'817.7
2018-Sep-18 18:30N 38°18' E 013°02'817.7
2018-Sep-18 18:03N 38°18' E 013°13'117.5
2018-Sep-18 18:00N 38°17' E 013°14'917.4
2018-Sep-18 17:30N 38°16' E 013°25'714.7
2018-Sep-18 17:03N 38°10' E 013°26'112.1
2018-Sep-18 17:00N 38°09' E 013°26'3 5.9
2018-Sep-18 16:29N 38°08' E 013°22'0 0.5
2018-Sep-18 16:02N 38°08' E 013°22'0 0.0
2018-Sep-18 15:59N 38°08' E 013°22'0 0.0
2018-Sep-18 15:30N 38°08' E 013°22'0 0.0
2018-Sep-18 15:01N 38°08' E 013°22'0 0.0
2018-Sep-18 14:58N 38°08' E 013°22'0 0.0
2018-Sep-18 14:01N 38°08' E 013°22'0 0.0
2018-Sep-18 13:58N 38°08' E 013°22'0 0.0
2018-Sep-18 13:28N 38°08' E 013°22'0 0.0
2018-Sep-18 13:01N 38°08' E 013°22'0 0.0
2018-Sep-18 12:58N 38°08' E 013°22'0 0.0
2018-Sep-18 12:28N 38°08' E 013°22'0 0.0
2018-Sep-18 12:03N 38°08' E 013°22'0 0.0
2018-Sep-18 12:00N 38°08' E 013°22'0 0.0
2018-Sep-18 11:29N 38°08' E 013°22'0 0.0
2018-Sep-18 11:02N 38°08' E 013°22'0 0.0
2018-Sep-18 10:59N 38°08' E 013°22'0 0.0
2018-Sep-18 10:26N 38°08' E 013°22'0 0.0
2018-Sep-18 10:02N 38°08' E 013°22'0 0.0
2018-Sep-18 09:59N 38°08' E 013°22'0 0.0
2018-Sep-18 09:29N 38°08' E 013°22'0 0.0
2018-Sep-18 09:02N 38°08' E 013°22'0 0.0
2018-Sep-18 08:59N 38°08' E 013°22'0 0.0
2018-Sep-18 08:29N 38°08' E 013°22'0 0.0
2018-Sep-18 08:02N 38°08' E 013°22'0 0.0
2018-Sep-18 07:59N 38°08' E 013°22'0 0.0
2018-Sep-18 07:30N 38°08' E 013°22'0 0.0
2018-Sep-18 07:01N 38°08' E 013°22'0 0.0
2018-Sep-18 06:58N 38°08' E 013°22'0 0.8
2018-Sep-18 06:30N 38°08' E 013°22'3 5.8
2018-Sep-18 06:03N 38°09' E 013°25'114.1
2018-Sep-18 06:00N 38°10' E 013°25'917.2
2018-Sep-18 05:30N 38°18' E 013°28'817.9
2018-Sep-18 05:03N 38°26' E 013°30'117.6
2018-Sep-18 05:00N 38°27' E 013°30'917.5
2018-Sep-18 04:30N 38°36' E 013°33'817.5
2018-Sep-18 04:03N 38°43' E 013°35'117.6
2018-Sep-18 04:00N 38°44' E 013°35'917.7
2018-Sep-18 03:29N 38°53' E 013°38'817.8
2018-Sep-18 03:02N 39°01' E 013°41'117.9
2018-Sep-18 03:00N 39°01' E 013°41'917.9
2018-Sep-18 02:30N 39°10' E 013°43'817.8
2018-Sep-18 02:03N 39°18' E 013°45'117.6
2018-Sep-18 02:00N 39°19' E 013°45'713.9
2018-Sep-18 01:30N 39°26' E 013°47'512.6
2018-Sep-18 01:03N 39°31' E 013°49'112.6
2018-Sep-18 00:57N 39°33' E 013°49'712.3
2018-Sep-18 00:23N 39°39' E 013°51'612.4
2018-Sep-17 23:52N 39°45' E 013°54'512.5
2018-Sep-17 23:29N 39°50' E 013°55'612.5
2018-Sep-17 23:01N 39°56' E 013°57'012.5
2018-Sep-17 23:00N 39°56' E 013°57'612.4
2018-Sep-17 22:29N 40°02' E 013°59'512.4
2018-Sep-17 22:03N 40°07' E 014°01'112.3
2018-Sep-17 22:00N 40°08' E 014°01'612.4
2018-Sep-17 21:30N 40°14' E 014°03'612.5
2018-Sep-17 21:00N 40°20' E 014°04'612.6
2018-Sep-17 20:30N 40°26' E 014°06'612.7
2018-Sep-17 20:03N 40°32' E 014°08'112.7
2018-Sep-17 20:00N 40°32' E 014°08'612.6
2018-Sep-17 19:31N 40°38' E 014°11'612.5
2018-Sep-17 19:03N 40°44' E 014°14'012.4
2018-Sep-17 19:01N 40°44' E 014°15'611.7
2018-Sep-17 18:31N 40°50' E 014°17'1 2.4
2018-Sep-17 18:03N 40°50' E 014°16'0 0.0
2018-Sep-17 17:56N 40°50' E 014°16'0 0.0
2018-Sep-17 17:26N 40°50' E 014°16'0 0.0
2018-Sep-17 17:02N 40°50' E 014°16'0 0.0
2018-Sep-17 16:59N 40°50' E 014°16'0 0.0
2018-Sep-17 16:28N 40°50' E 014°16'0 0.0
2018-Sep-17 16:01N 40°50' E 014°16'0 0.0
2018-Sep-17 15:58N 40°50' E 014°16'0 0.0
2018-Sep-17 15:28N 40°50' E 014°16'0 0.0
2018-Sep-17 15:01N 40°50' E 014°16'0 0.0
2018-Sep-17 14:52N 40°50' E 014°16'0 0.0
2018-Sep-17 14:28N 40°50' E 014°16'0 0.0
2018-Sep-17 13:55N 40°50' E 014°16'0 0.0
2018-Sep-17 13:28N 40°50' E 014°16'0 0.0
2018-Sep-17 13:03N 40°50' E 014°16'0 0.0
2018-Sep-17 12:57N 40°50' E 014°16'0 0.0
2018-Sep-17 12:26N 40°50' E 014°16'0 0.0
2018-Sep-17 12:02N 40°50' E 014°16'0 0.0
2018-Sep-17 11:50N 40°50' E 014°16'0 0.0
2018-Sep-17 11:29N 40°50' E 014°16'0 0.0
2018-Sep-17 11:02N 40°50' E 014°16'0 0.0
2018-Sep-17 11:00N 40°50' E 014°16'1 2.6
2018-Sep-17 10:30N 40°49' E 014°17'511.1
2018-Sep-17 10:03N 40°44' E 014°18'115.6
2018-Sep-17 10:00N 40°44' E 014°18'816.7
2018-Sep-17 09:30N 40°40' E 014°08'920.4
2018-Sep-17 09:03N 40°38' E 013°56'120.5
2018-Sep-17 09:00N 40°38' E 013°55'1020.9
2018-Sep-17 08:30N 40°40' E 013°41'921.0
2018-Sep-17 08:04N 40°42' E 013°29'14320.7
2018-Sep-17 01:07N 41°53' E 010°43'420.6
2018-Sep-17 00:57N 41°55' E 010°39'1120.5
2018-Sep-17 00:24N 42°02' E 010°27'920.4
2018-Sep-16 23:58N 42°07' E 010°17'920.5
2018-Sep-16 23:30N 42°12' E 010°06'920.7
2018-Sep-16 23:03N 42°17' E 009°56'120.4
2018-Sep-16 23:01N 42°17' E 009°55'1020.7
2018-Sep-16 22:31N 42°27' E 009°50'920.6
2018-Sep-16 22:03N 42°36' E 009°46'220.8
2018-Sep-16 21:59N 42°38' E 009°45'1020.8
2018-Sep-16 21:30N 42°47' E 009°41'920.7
2018-Sep-16 21:03N 42°56' E 009°38'121.2
2018-Sep-16 21:00N 42°57' E 009°38'1020.9
2018-Sep-16 20:30N 43°06' E 009°32'920.8
2018-Sep-16 20:04N 43°15' E 009°26'120.8
2018-Sep-16 20:01N 43°15' E 009°25'1020.8
2018-Sep-16 19:31N 43°24' E 009°17'920.7
2018-Sep-16 19:04N 43°32' E 009°10'120.3
2018-Sep-16 19:01N 43°33' E 009°10'1020.3
2018-Sep-16 18:31N 43°42' E 009°02'920.2
2018-Sep-16 18:03N 43°49' E 008°56'120.2
2018-Sep-16 18:01N 43°50' E 008°55'1020.3
2018-Sep-16 17:31N 43°59' E 008°48'920.5
2018-Sep-16 17:04N 44°07' E 008°42'120.8
2018-Sep-16 17:01N 44°08' E 008°41'1019.7
2018-Sep-16 16:31N 44°16' E 008°34'4 8.3
2018-Sep-16 16:03N 44°19' E 008°30'0 3.3
2018-Sep-16 16:00N 44°19' E 008°30'1 1.3
2018-Sep-16 15:29N 44°19' E 008°29'0 0.0
2018-Sep-16 15:01N 44°19' E 008°29'0 0.0
2018-Sep-16 14:58N 44°19' E 008°29'0 0.0
2018-Sep-16 14:25N 44°19' E 008°29'0 0.0
2018-Sep-16 13:28N 44°19' E 008°29'0 0.0
2018-Sep-16 13:01N 44°19' E 008°29'0 0.0
2018-Sep-16 12:58N 44°19' E 008°29'0 0.0
2018-Sep-16 12:28N 44°19' E 008°29'0 0.0
2018-Sep-16 12:01N 44°19' E 008°29'0 0.0
2018-Sep-16 11:58N 44°19' E 008°29'0 0.0
2018-Sep-16 11:28N 44°19' E 008°29'0 0.0
2018-Sep-16 11:01N 44°19' E 008°29'0 0.0
2018-Sep-16 10:58N 44°19' E 008°29'0 0.0
2018-Sep-16 10:28N 44°19' E 008°29'0 0.0
2018-Sep-16 10:03N 44°19' E 008°29'0 0.0
2018-Sep-16 10:00N 44°19' E 008°29'0 0.0
2018-Sep-16 09:30N 44°19' E 008°29'0 0.0
2018-Sep-16 09:03N 44°19' E 008°29'0 0.0
2018-Sep-16 09:00N 44°19' E 008°29'0 0.0
2018-Sep-16 08:30N 44°19' E 008°29'0 0.0
2018-Sep-16 08:03N 44°19' E 008°29'0 0.0
2018-Sep-16 08:00N 44°19' E 008°29'0 0.0
2018-Sep-16 07:30N 44°19' E 008°29'0 0.0
2018-Sep-16 07:03N 44°19' E 008°29'0 0.0
2018-Sep-16 07:00N 44°19' E 008°29'0 0.0
2018-Sep-16 06:30N 44°19' E 008°29'1 1.1
2018-Sep-16 06:03N 44°19' E 008°30'0 4.2
2018-Sep-16 06:00N 44°19' E 008°30'4 8.8
2018-Sep-16 05:31N 44°15' E 008°32'919.8
2018-Sep-16 05:04N 44°07' E 008°26'120.6
2018-Sep-16 05:01N 44°06' E 008°25'1020.5
2018-Sep-16 04:30N 43°57' E 008°18'920.3
2018-Sep-16 04:04N 43°50' E 008°11'120.4
2018-Sep-16 04:00N 43°49' E 008°10'1019.9
2018-Sep-16 03:31N 43°42' E 007°60'920.2
2018-Sep-16 03:03N 43°37' E 007°49'120.3
2018-Sep-16 03:01N 43°36' E 007°48'1020.3
2018-Sep-16 02:30N 43°30' E 007°37'920.2
2018-Sep-16 02:04N 43°25' E 007°27'120.3
2018-Sep-16 02:01N 43°24' E 007°26'1020.1
2018-Sep-16 01:31N 43°18' E 007°15'920.2
2018-Sep-16 01:03N 43°13' E 007°05'120.4
2018-Sep-16 01:00N 43°12' E 007°03'1020.5
2018-Sep-16 00:31N 43°06' E 006°52'1020.0
2018-Sep-15 23:59N 42°60' E 006°41'6420.4
2018-Sep-15 20:50N 42°29' E 005°24'920.9
2018-Sep-15 20:24N 42°25' E 005°13'720.9
2018-Sep-15 20:03N 42°21' E 005°04'121.2
2018-Sep-15 20:00N 42°21' E 005°03'1120.9
2018-Sep-15 19:30N 42°16' E 004°51'10921.0
2018-Sep-15 14:21N 41°25' E 002°42'720.3
2018-Sep-15 14:00N 41°22' E 002°34'1020.3
2018-Sep-15 13:31N 41°18' E 002°22'817.9
2018-Sep-15 13:03N 41°16' E 002°11'114.6
2018-Sep-15 13:00N 41°17' E 002°11'4 8.1
2018-Sep-15 12:30N 41°21' E 002°10'0 0.8
2018-Sep-15 12:02N 41°21' E 002°10'0 0.0
2018-Sep-15 11:59N 41°21' E 002°10'0 0.0
2018-Sep-15 11:29N 41°21' E 002°10'0 0.0
2018-Sep-15 11:02N 41°21' E 002°10'0 0.0
2018-Sep-15 10:59N 41°21' E 002°10'0 0.0
2018-Sep-15 10:29N 41°21' E 002°10'0 0.0
2018-Sep-15 10:02N 41°21' E 002°10'0 0.0
2018-Sep-15 09:59N 41°21' E 002°10'0 0.0
2018-Sep-15 09:29N 41°21' E 002°10'0 0.0
2018-Sep-15 09:02N 41°21' E 002°10'0 0.0
2018-Sep-15 08:59N 41°21' E 002°10'0 0.0
2018-Sep-15 08:29N 41°21' E 002°10'0 0.0
2018-Sep-15 08:02N 41°21' E 002°10'0 0.0
2018-Sep-15 07:59N 41°21' E 002°10'0 0.0
2018-Sep-15 07:29N 41°21' E 002°10'0 0.0
2018-Sep-15 07:02N 41°21' E 002°10'0 0.0
2018-Sep-15 06:59N 41°21' E 002°10'0 0.0
2018-Sep-15 06:29N 41°21' E 002°10'0 0.0
2018-Sep-15 06:02N 41°21' E 002°10'0 0.0
2018-Sep-15 05:59N 41°21' E 002°10'1 1.3
2018-Sep-15 05:30N 41°21' E 002°10'2 4.0
2018-Sep-15 05:03N 41°19' E 002°10'0 5.2
2018-Sep-15 05:00N 41°19' E 002°10'4 7.8
2018-Sep-15 04:30N 41°15' E 002°12'4 9.9
2018-Sep-15 04:03N 41°10' E 002°12'112.0
2018-Sep-15 04:00N 41°10' E 002°11'611.6
2018-Sep-15 03:30N 41°04' E 002°12'511.1
2018-Sep-15 03:03N 40°59' E 002°12'011.1
2018-Sep-15 03:00N 40°59' E 002°12'  
Track history (hours):
 
Tides and Currents Weather Stations Pressure Air Temp Water Temp Dewpoint Dewpoint Depression Visibility Wind Speed Wind Dir Waves Ship Positions

Costa Fascinosa

Last reported at 2018-Sep-24 20:30 UTC. Time now 2018-Sep-24 21:00 UTC.
Position N 40°25' E 014°06'.

Length 291 m; draft 8.3 m.

Type: Passenger vessel. MMSI: 247313500.

Date/timePositionNaut miles runAvg speedWind from/ knotsBaromVisibWave heightAir tempDewpointWater temp
2018-Sep-24 20:30N 40°25' E 014°06'712.2
2018-Sep-24 19:56N 40°32' E 014°08'512.1
2018-Sep-24 19:31N 40°37' E 014°10'512.1
2018-Sep-24 19:03N 40°42' E 014°13'112.3
2018-Sep-24 19:00N 40°42' E 014°13'611.9
2018-Sep-24 18:31N 40°48' E 014°16'2 5.1
2018-Sep-24 18:03N 40°50' E 014°16'0 0.0
2018-Sep-24 17:58N 40°50' E 014°16'0 0.0
2018-Sep-24 17:28N 40°50' E 014°16'0 0.0
2018-Sep-24 17:01N 40°50' E 014°16'0 0.0
2018-Sep-24 16:58N 40°50' E 014°16'0 0.0
2018-Sep-24 16:25N 40°50' E 014°16'0 0.0
2018-Sep-24 16:01N 40°50' E 014°16'0 0.1
2018-Sep-24 15:58N 40°50' E 014°16'0 0.0
2018-Sep-24 15:28N 40°50' E 014°16'0 0.0
2018-Sep-24 15:01N 40°50' E 014°16'0 0.0
2018-Sep-24 14:58N 40°50' E 014°16'0 0.0
2018-Sep-24 14:27N 40°50' E 014°16'0 0.0
2018-Sep-24 14:00N 40°50' E 014°16'0 0.0
2018-Sep-24 13:30N 40°50' E 014°16'0 0.0
2018-Sep-24 13:03N 40°50' E 014°16'0 0.0
2018-Sep-24 13:00N 40°50' E 014°16'0 0.0
2018-Sep-24 12:30N 40°50' E 014°16'0 0.0
2018-Sep-24 12:02N 40°50' E 014°16'0 0.0
2018-Sep-24 11:59N 40°50' E 014°16'0 0.0
2018-Sep-24 11:26N 40°50' E 014°16'0 0.0
2018-Sep-24 11:03N 40°50' E 014°16'0 0.0
2018-Sep-24 11:00N 40°50' E 014°16'1 2.4
2018-Sep-24 10:30N 40°49' E 014°17'510.7
2018-Sep-24 10:03N 40°45' E 014°18'116.8
2018-Sep-24 10:00N 40°44' E 014°17'918.6
2018-Sep-24 09:30N 40°39' E 014°07'1021.0
2018-Sep-24 09:03N 40°38' E 013°55'120.8
2018-Sep-24 09:00N 40°38' E 013°53'1120.8
2018-Sep-24 08:30N 40°40' E 013°40'16820.5
2018-Sep-24 00:20N 42°02' E 010°25'620.3
2018-Sep-24 00:01N 42°06' E 010°18'120.2
2018-Sep-24 00:00N 42°06' E 010°17'3119.5
2018-Sep-23 22:24N 42°29' E 009°49'2120.7
2018-Sep-23 21:22N 42°49' E 009°39'720.7
2018-Sep-23 21:03N 42°55' E 009°37'121.3
2018-Sep-23 21:00N 42°56' E 009°37'1020.4
2018-Sep-23 20:30N 43°06' E 009°32'920.8
2018-Sep-23 20:03N 43°14' E 009°25'120.9
2018-Sep-23 20:00N 43°15' E 009°25'1020.9
2018-Sep-23 19:30N 43°24' E 009°17'920.7
2018-Sep-23 19:03N 43°32' E 009°11'120.6
2018-Sep-23 19:00N 43°33' E 009°10'1020.3
2018-Sep-23 18:31N 43°41' E 009°03'920.2
2018-Sep-23 18:04N 43°49' E 008°56'120.2
2018-Sep-23 18:01N 43°50' E 008°55'1020.4
2018-Sep-23 17:31N 43°58' E 008°47'920.5
2018-Sep-23 17:03N 44°06' E 008°40'120.5
2018-Sep-23 17:00N 44°07' E 008°40'1019.8
2018-Sep-23 16:30N 44°16' E 008°34'4 8.9
2018-Sep-23 16:03N 44°19' E 008°30'0 2.5
2018-Sep-23 16:01N 44°19' E 008°30'1 1.6
2018-Sep-23 15:28N 44°19' E 008°29'0 0.0
2018-Sep-23 15:01N 44°19' E 008°29'0 0.0
2018-Sep-23 14:58N 44°19' E 008°29'0 0.0
2018-Sep-23 14:28N 44°19' E 008°29'0 0.0
2018-Sep-23 13:28N 44°19' E 008°29'0 0.0
2018-Sep-23 13:01N 44°19' E 008°29'0 0.0
2018-Sep-23 12:58N 44°19' E 008°29'0 0.0
2018-Sep-23 12:28N 44°19' E 008°29'0 0.0
2018-Sep-23 12:01N 44°19' E 008°29'0 0.0
2018-Sep-23 11:58N 44°19' E 008°29'0 0.0
2018-Sep-23 11:28N 44°19' E 008°29'0 0.0
2018-Sep-23 11:01N 44°19' E 008°29'0 0.0
2018-Sep-23 10:58N 44°19' E 008°29'0 0.0
2018-Sep-23 10:28N 44°19' E 008°29'0 0.0
2018-Sep-23 10:01N 44°19' E 008°29'0 0.0
2018-Sep-23 09:58N 44°19' E 008°29'0 0.0
2018-Sep-23 09:30N 44°19' E 008°29'0 0.0
2018-Sep-23 09:03N 44°19' E 008°29'0 0.0
2018-Sep-23 09:00N 44°19' E 008°29'0 0.0
2018-Sep-23 08:30N 44°19' E 008°29'0 0.0
2018-Sep-23 08:02N 44°19' E 008°29'0 0.0
2018-Sep-23 07:59N 44°19' E 008°29'0 0.0
2018-Sep-23 07:29N 44°19' E 008°29'0 0.0
2018-Sep-23 07:02N 44°19' E 008°29'0 0.0
2018-Sep-23 06:59N 44°19' E 008°29'0 0.0
2018-Sep-23 06:30N 44°19' E 008°29'1 2.6
2018-Sep-23 06:03N 44°19' E 008°31'0 7.7
2018-Sep-23 06:00N 44°19' E 008°31'510.4
2018-Sep-23 05:31N 44°14' E 008°31'919.8
2018-Sep-23 05:04N 44°06' E 008°26'120.6
2018-Sep-23 05:01N 44°05' E 008°25'1020.2
2018-Sep-23 04:31N 43°56' E 008°18'919.8
2018-Sep-23 04:04N 43°49' E 008°10'119.9
2018-Sep-23 04:01N 43°48' E 008°10'1019.7
2018-Sep-23 03:31N 43°42' E 007°59'919.8
2018-Sep-23 03:04N 43°36' E 007°49'119.8
2018-Sep-23 03:00N 43°36' E 007°48'1020.0
2018-Sep-23 02:31N 43°30' E 007°37'920.2
2018-Sep-23 02:03N 43°25' E 007°27'120.4
2018-Sep-23 02:01N 43°24' E 007°26'1020.5
2018-Sep-23 01:31N 43°18' E 007°14'920.3
2018-Sep-23 01:04N 43°13' E 007°04'120.0
2018-Sep-23 01:01N 43°13' E 007°02'1019.9
2018-Sep-23 00:31N 43°06' E 006°52'6719.9
2018-Sep-22 21:09N 42°33' E 005°33'220.2
2018-Sep-22 21:02N 42°32' E 005°30'120.2
2018-Sep-22 21:00N 42°31' E 005°30'13820.9
2018-Sep-22 14:25N 41°27' E 002°46'821.1
2018-Sep-22 14:01N 41°23' E 002°36'1020.7
2018-Sep-22 13:31N 41°18' E 002°24'919.4
2018-Sep-22 13:03N 41°16' E 002°12'113.9
2018-Sep-22 13:01N 41°16' E 002°12'4 9.0
2018-Sep-22 12:31N 41°21' E 002°10'1 1.6
2018-Sep-22 12:02N 41°21' E 002°10'0 0.0
2018-Sep-22 11:59N 41°21' E 002°10'0 0.0
2018-Sep-22 11:29N 41°21' E 002°10'0 0.0
2018-Sep-22 11:02N 41°21' E 002°10'0 0.0
2018-Sep-22 10:59N 41°21' E 002°10'0 0.0
2018-Sep-22 10:26N 41°21' E 002°10'0 0.0
2018-Sep-22 10:02N 41°21' E 002°10'0 0.0
2018-Sep-22 09:56N 41°21' E 002°10'0 0.0
2018-Sep-22 09:26N 41°21' E 002°10'0 0.0
2018-Sep-22 09:03N 41°21' E 002°10'0 0.0
2018-Sep-22 09:00N 41°21' E 002°10'0 0.0
2018-Sep-22 08:30N 41°21' E 002°10'0 0.0
2018-Sep-22 08:03N 41°21' E 002°10'0 0.0
2018-Sep-22 07:57N 41°21' E 002°10'0 0.0
2018-Sep-22 07:26N 41°21' E 002°10'0 0.0
2018-Sep-22 07:01N 41°21' E 002°10'0 0.0
2018-Sep-22 06:58N 41°21' E 002°10'0 0.0
2018-Sep-22 06:28N 41°21' E 002°10'0 0.0
2018-Sep-22 05:52N 41°21' E 002°10'0 0.2
2018-Sep-22 05:30N 41°21' E 002°10'1 2.5
2018-Sep-22 05:03N 41°20' E 002°10'0 5.6
2018-Sep-22 05:01N 41°20' E 002°10'4 7.7
2018-Sep-22 04:31N 41°16' E 002°12'612.6
2018-Sep-22 04:04N 41°11' E 002°13'114.5
2018-Sep-22 04:01N 41°10' E 002°12'611.8
2018-Sep-22 03:30N 41°04' E 002°12'511.2
2018-Sep-22 03:02N 40°59' E 002°12'111.2
2018-Sep-22 02:55N 40°57' E 002°12'4911.9
2018-Sep-21 22:46N 40°08' E 002°14'412.1
2018-Sep-21 22:27N 40°04' E 002°14'1511.6
2018-Sep-21 21:09N 39°49' E 002°14'111.7
2018-Sep-21 21:02N 39°48' E 002°13'011.8
2018-Sep-21 21:00N 39°47' E 002°13'711.9
2018-Sep-21 20:24N 39°40' E 002°14'1310.8
2018-Sep-21 19:12N 39°28' E 002°21'311.4
2018-Sep-21 18:58N 39°27' E 002°24'511.2
2018-Sep-21 18:30N 39°25' E 002°30'510.9
2018-Sep-21 18:03N 39°27' E 002°35'111.7
2018-Sep-21 18:00N 39°28' E 002°36'510.7
2018-Sep-21 17:30N 39°32' E 002°39'1 3.1
2018-Sep-21 17:03N 39°33' E 002°38'0 0.0
2018-Sep-21 17:00N 39°33' E 002°38'0 0.0
2018-Sep-21 16:30N 39°33' E 002°38'0 0.0
2018-Sep-21 16:03N 39°33' E 002°38'0 0.0
2018-Sep-21 16:00N 39°33' E 002°38'0 0.0
2018-Sep-21 15:30N 39°33' E 002°38'0 0.0
2018-Sep-21 15:03N 39°33' E 002°38'0 0.0
2018-Sep-21 14:58N 39°33' E 002°38'0 0.0
2018-Sep-21 14:28N 39°33' E 002°38'0 0.0
2018-Sep-21 13:25N 39°33' E 002°38'0 0.0
2018-Sep-21 13:01N 39°33' E 002°38'0 0.0
2018-Sep-21 12:58N 39°33' E 002°38'0 0.0
2018-Sep-21 12:28N 39°33' E 002°38'0 0.0
2018-Sep-21 12:01N 39°33' E 002°38'0 0.0
2018-Sep-21 11:58N 39°33' E 002°38'0 0.0
2018-Sep-21 11:28N 39°33' E 002°38'0 0.0
2018-Sep-21 11:01N 39°33' E 002°38'0 0.0
2018-Sep-21 10:58N 39°33' E 002°38'0 0.0
2018-Sep-21 10:25N 39°33' E 002°38'0 0.0
2018-Sep-21 10:02N 39°33' E 002°38'0 0.0
2018-Sep-21 10:00N 39°33' E 002°38'0 0.0
2018-Sep-21 09:26N 39°33' E 002°38'0 0.0
2018-Sep-21 09:02N 39°33' E 002°38'0 0.0
2018-Sep-21 08:59N 39°33' E 002°38'0 0.0
2018-Sep-21 08:29N 39°33' E 002°38'0 0.0
2018-Sep-21 08:02N 39°33' E 002°38'0 0.0
2018-Sep-21 07:59N 39°33' E 002°38'0 0.0
2018-Sep-21 07:29N 39°33' E 002°38'0 0.0
2018-Sep-21 07:03N 39°33' E 002°38'0 0.1
2018-Sep-21 07:00N 39°33' E 002°38'1 3.0
2018-Sep-21 06:30N 39°32' E 002°39'511.6
2018-Sep-21 06:03N 39°27' E 002°35'115.8
2018-Sep-21 06:00N 39°27' E 002°35'816.8
2018-Sep-21 05:30N 39°19' E 002°29'817.3
2018-Sep-21 05:03N 39°13' E 002°24'117.4
2018-Sep-21 05:00N 39°12' E 002°23'2517.2
2018-Sep-21 03:34N 38°59' E 001°56'917.5
2018-Sep-21 03:04N 38°57' E 001°45'317.4
2018-Sep-21 02:53N 38°56' E 001°41'717.4
2018-Sep-21 02:30N 38°54' E 001°33'510.5
2018-Sep-21 02:03N 38°54' E 001°27'0 1.3
2018-Sep-21 01:47N 38°54' E 001°27'0 0.0
2018-Sep-21 01:29N 38°54' E 001°27'0 0.0
2018-Sep-21 01:01N 38°54' E 001°27'0 0.0
2018-Sep-21 00:58N 38°54' E 001°27'0 0.0
2018-Sep-21 00:28N 38°54' E 001°27'0 0.0
2018-Sep-21 00:01N 38°54' E 001°27'0 0.0
2018-Sep-20 23:58N 38°54' E 001°27'0 0.0
2018-Sep-20 23:28N 38°54' E 001°27'0 0.0
2018-Sep-20 23:01N 38°54' E 001°27'0 0.0
2018-Sep-20 22:55N 38°54' E 001°27'0 0.0
2018-Sep-20 22:28N 38°54' E 001°27'0 0.0
2018-Sep-20 22:01N 38°54' E 001°27'0 0.0
2018-Sep-20 21:58N 38°54' E 001°27'0 0.0
2018-Sep-20 21:28N 38°54' E 001°27'0 0.0
2018-Sep-20 21:01N 38°54' E 001°27'0 0.0
2018-Sep-20 20:58N 38°54' E 001°27'0 0.0
2018-Sep-20 20:28N 38°54' E 001°27'0 0.0
2018-Sep-20 20:01N 38°54' E 001°27'0 0.0
2018-Sep-20 19:58N 38°54' E 001°27'0 0.0
2018-Sep-20 19:28N 38°54' E 001°27'0 0.0
2018-Sep-20 19:01N 38°54' E 001°27'0 0.0
2018-Sep-20 18:58N 38°54' E 001°27'0 0.0
2018-Sep-20 18:28N 38°54' E 001°27'0 0.0
2018-Sep-20 18:03N 38°54' E 001°27'0 0.0
2018-Sep-20 18:00N 38°54' E 001°27'0 0.0
2018-Sep-20 17:30N 38°54' E 001°27'0 0.0
2018-Sep-20 17:02N 38°54' E 001°27'0 0.0
2018-Sep-20 16:59N 38°54' E 001°27'0 0.0
2018-Sep-20 16:29N 38°54' E 001°27'0 0.0
2018-Sep-20 16:02N 38°54' E 001°27'0 0.0
2018-Sep-20 15:59N 38°54' E 001°27'0 0.0
2018-Sep-20 15:29N 38°54' E 001°27'0 0.0
2018-Sep-20 15:02N 38°54' E 001°27'0 0.0
2018-Sep-20 14:59N 38°54' E 001°27'0 0.0
2018-Sep-20 14:02N 38°54' E 001°27'0 0.0
2018-Sep-20 13:59N 38°54' E 001°27'0 0.0
2018-Sep-20 13:29N 38°54' E 001°27'0 0.0
2018-Sep-20 13:03N 38°54' E 001°27'0 0.0
2018-Sep-20 13:00N 38°54' E 001°27'0 0.0
2018-Sep-20 12:30N 38°54' E 001°27'0 0.0
2018-Sep-20 12:03N 38°54' E 001°27'0 0.0
2018-Sep-20 11:57N 38°54' E 001°27'0 0.0
2018-Sep-20 11:30N 38°54' E 001°27'0 0.0
2018-Sep-20 11:03N 38°54' E 001°27'0 0.0
2018-Sep-20 10:57N 38°54' E 001°27'0 0.0
2018-Sep-20 10:29N 38°54' E 001°27'0 0.0
2018-Sep-20 10:02N 38°54' E 001°27'0 0.0
2018-Sep-20 09:59N 38°54' E 001°27'0 0.0
2018-Sep-20 09:29N 38°54' E 001°27'0 0.0
2018-Sep-20 09:02N 38°54' E 001°27'0 0.0
2018-Sep-20 08:59N 38°54' E 001°27'0 0.0
2018-Sep-20 08:29N 38°54' E 001°27'0 0.0
2018-Sep-20 08:02N 38°54' E 001°27'0 0.0
2018-Sep-20 07:59N 38°54' E 001°27'0 0.0
2018-Sep-20 07:29N 38°54' E 001°27'0 0.0
2018-Sep-20 07:01N 38°54' E 001°27'0 0.0
2018-Sep-20 06:58N 38°54' E 001°27'1 1.3
2018-Sep-20 06:27N 38°54' E 001°27'4 7.4
2018-Sep-20 05:53N 38°51' E 001°30'52915.3
2018-Sep-18 19:14N 38°19' E 012°46'517.7
2018-Sep-18 18:57N 38°18' E 012°52'817.7
2018-Sep-18 18:30N 38°18' E 013°02'817.7
2018-Sep-18 18:03N 38°18' E 013°13'117.5
2018-Sep-18 18:00N 38°17' E 013°14'917.4
2018-Sep-18 17:30N 38°16' E 013°25'714.7
2018-Sep-18 17:03N 38°10' E 013°26'112.1
2018-Sep-18 17:00N 38°09' E 013°26'3 5.9
2018-Sep-18 16:29N 38°08' E 013°22'0 0.5
2018-Sep-18 16:02N 38°08' E 013°22'0 0.0
2018-Sep-18 15:59N 38°08' E 013°22'0 0.0
2018-Sep-18 15:30N 38°08' E 013°22'0 0.0
2018-Sep-18 15:01N 38°08' E 013°22'0 0.0
2018-Sep-18 14:58N 38°08' E 013°22'0 0.0
2018-Sep-18 14:01N 38°08' E 013°22'0 0.0
2018-Sep-18 13:58N 38°08' E 013°22'0 0.0
2018-Sep-18 13:28N 38°08' E 013°22'0 0.0
2018-Sep-18 13:01N 38°08' E 013°22'0 0.0
2018-Sep-18 12:58N 38°08' E 013°22'0 0.0
2018-Sep-18 12:28N 38°08' E 013°22'0 0.0
2018-Sep-18 12:03N 38°08' E 013°22'0 0.0
2018-Sep-18 12:00N 38°08' E 013°22'0 0.0
2018-Sep-18 11:29N 38°08' E 013°22'0 0.0
2018-Sep-18 11:02N 38°08' E 013°22'0 0.0
2018-Sep-18 10:59N 38°08' E 013°22'0 0.0
2018-Sep-18 10:26N 38°08' E 013°22'0 0.0
2018-Sep-18 10:02N 38°08' E 013°22'0 0.0
2018-Sep-18 09:59N 38°08' E 013°22'0 0.0
2018-Sep-18 09:29N 38°08' E 013°22'0 0.0
2018-Sep-18 09:02N 38°08' E 013°22'0 0.0
2018-Sep-18 08:59N 38°08' E 013°22'0 0.0
2018-Sep-18 08:29N 38°08' E 013°22'0 0.0
2018-Sep-18 08:02N 38°08' E 013°22'0 0.0
2018-Sep-18 07:59N 38°08' E 013°22'0 0.0
2018-Sep-18 07:30N 38°08' E 013°22'0 0.0
2018-Sep-18 07:01N 38°08' E 013°22'0 0.0
2018-Sep-18 06:58N 38°08' E 013°22'0 0.8
2018-Sep-18 06:30N 38°08' E 013°22'3 5.8
2018-Sep-18 06:03N 38°09' E 013°25'114.1
2018-Sep-18 06:00N 38°10' E 013°25'917.2
2018-Sep-18 05:30N 38°18' E 013°28'817.9
2018-Sep-18 05:03N 38°26' E 013°30'117.6
2018-Sep-18 05:00N 38°27' E 013°30'917.5
2018-Sep-18 04:30N 38°36' E 013°33'817.5
2018-Sep-18 04:03N 38°43' E 013°35'117.6
2018-Sep-18 04:00N 38°44' E 013°35'917.7
2018-Sep-18 03:29N 38°53' E 013°38'817.8
2018-Sep-18 03:02N 39°01' E 013°41'117.9
2018-Sep-18 03:00N 39°01' E 013°41'917.9
2018-Sep-18 02:30N 39°10' E 013°43'817.8
2018-Sep-18 02:03N 39°18' E 013°45'117.6
2018-Sep-18 02:00N 39°19' E 013°45'713.9
2018-Sep-18 01:30N 39°26' E 013°47'512.6
2018-Sep-18 01:03N 39°31' E 013°49'112.6
2018-Sep-18 00:57N 39°33' E 013°49'712.3
2018-Sep-18 00:23N 39°39' E 013°51'612.4
2018-Sep-17 23:52N 39°45' E 013°54'512.5
2018-Sep-17 23:29N 39°50' E 013°55'612.5
2018-Sep-17 23:01N 39°56' E 013°57'012.5
2018-Sep-17 23:00N 39°56' E 013°57'612.4
2018-Sep-17 22:29N 40°02' E 013°59'512.4
2018-Sep-17 22:03N 40°07' E 014°01'112.3
2018-Sep-17 22:00N 40°08' E 014°01'612.4
2018-Sep-17 21:30N 40°14' E 014°03'612.5
2018-Sep-17 21:00N 40°20' E 014°04'612.6
2018-Sep-17 20:30N 40°26' E 014°06'612.7
2018-Sep-17 20:03N 40°32' E 014°08'112.7
2018-Sep-17 20:00N 40°32' E 014°08'612.6
2018-Sep-17 19:31N 40°38' E 014°11'612.5
2018-Sep-17 19:03N 40°44' E 014°14'012.4
2018-Sep-17 19:01N 40°44' E 014°15'611.7
2018-Sep-17 18:31N 40°50' E 014°17'1 2.4
2018-Sep-17 18:03N 40°50' E 014°16'0 0.0
2018-Sep-17 17:56N 40°50' E 014°16'0 0.0
2018-Sep-17 17:26N 40°50' E 014°16'0 0.0
2018-Sep-17 17:02N 40°50' E 014°16'0 0.0
2018-Sep-17 16:59N 40°50' E 014°16'0 0.0
2018-Sep-17 16:28N 40°50' E 014°16'0 0.0
2018-Sep-17 16:01N 40°50' E 014°16'0 0.0
2018-Sep-17 15:58N 40°50' E 014°16'0 0.0
2018-Sep-17 15:28N 40°50' E 014°16'0 0.0
2018-Sep-17 15:01N 40°50' E 014°16'0 0.0
2018-Sep-17 14:52N 40°50' E 014°16'0 0.0
2018-Sep-17 14:28N 40°50' E 014°16'0 0.0
2018-Sep-17 13:55N 40°50' E 014°16'0 0.0
2018-Sep-17 13:28N 40°50' E 014°16'0 0.0
2018-Sep-17 13:03N 40°50' E 014°16'0 0.0
2018-Sep-17 12:57N 40°50' E 014°16'0 0.0
2018-Sep-17 12:26N 40°50' E 014°16'0 0.0
2018-Sep-17 12:02N 40°50' E 014°16'0 0.0
2018-Sep-17 11:50N 40°50' E 014°16'0 0.0
2018-Sep-17 11:29N 40°50' E 014°16'0 0.0
2018-Sep-17 11:02N 40°50' E 014°16'0 0.0
2018-Sep-17 11:00N 40°50' E 014°16'1 2.6
2018-Sep-17 10:30N 40°49' E 014°17'511.1
2018-Sep-17 10:03N 40°44' E 014°18'115.6
2018-Sep-17 10:00N 40°44' E 014°18'816.7
2018-Sep-17 09:30N 40°40' E 014°08'920.4
2018-Sep-17 09:03N 40°38' E 013°56'120.5
2018-Sep-17 09:00N 40°38' E 013°55'1020.9
2018-Sep-17 08:30N 40°40' E 013°41'921.0
2018-Sep-17 08:04N 40°42' E 013°29'14320.7
2018-Sep-17 01:07N 41°53' E 010°43'420.6
2018-Sep-17 00:57N 41°55' E 010°39'1120.5
2018-Sep-17 00:24N 42°02' E 010°27'920.4
2018-Sep-16 23:58N 42°07' E 010°17'920.5
2018-Sep-16 23:30N 42°12' E 010°06'920.7
2018-Sep-16 23:03N 42°17' E 009°56'120.4
2018-Sep-16 23:01N 42°17' E 009°55'1020.7
2018-Sep-16 22:31N 42°27' E 009°50'920.6
2018-Sep-16 22:03N 42°36' E 009°46'220.8
2018-Sep-16 21:59N 42°38' E 009°45'1020.8
2018-Sep-16 21:30N 42°47' E 009°41'920.7
2018-Sep-16 21:03N 42°56' E 009°38'121.2
2018-Sep-16 21:00N 42°57' E 009°38'1020.9
2018-Sep-16 20:30N 43°06' E 009°32'920.8
2018-Sep-16 20:04N 43°15' E 009°26'120.8
2018-Sep-16 20:01N 43°15' E 009°25'1020.8
2018-Sep-16 19:31N 43°24' E 009°17'920.7
2018-Sep-16 19:04N 43°32' E 009°10'120.3
2018-Sep-16 19:01N 43°33' E 009°10'1020.3
2018-Sep-16 18:31N 43°42' E 009°02'920.2
2018-Sep-16 18:03N 43°49' E 008°56'120.2
2018-Sep-16 18:01N 43°50' E 008°55'1020.3
2018-Sep-16 17:31N 43°59' E 008°48'920.5
2018-Sep-16 17:04N 44°07' E 008°42'120.8
2018-Sep-16 17:01N 44°08' E 008°41'1019.7
2018-Sep-16 16:31N 44°16' E 008°34'4 8.3
2018-Sep-16 16:03N 44°19' E 008°30'0 3.3
2018-Sep-16 16:00N 44°19' E 008°30'1 1.3
2018-Sep-16 15:29N 44°19' E 008°29'0 0.0
2018-Sep-16 15:01N 44°19' E 008°29'0 0.0
2018-Sep-16 14:58N 44°19' E 008°29'0 0.0
2018-Sep-16 14:25N 44°19' E 008°29'0 0.0
2018-Sep-16 13:28N 44°19' E 008°29'0 0.0
2018-Sep-16 13:01N 44°19' E 008°29'0 0.0
2018-Sep-16 12:58N 44°19' E 008°29'0 0.0
2018-Sep-16 12:28N 44°19' E 008°29'0 0.0
2018-Sep-16 12:01N 44°19' E 008°29'0 0.0
2018-Sep-16 11:58N 44°19' E 008°29'0 0.0
2018-Sep-16 11:28N 44°19' E 008°29'0 0.0
2018-Sep-16 11:01N 44°19' E 008°29'0 0.0
2018-Sep-16 10:58N 44°19' E 008°29'0 0.0
2018-Sep-16 10:28N 44°19' E 008°29'0 0.0
2018-Sep-16 10:03N 44°19' E 008°29'0 0.0
2018-Sep-16 10:00N 44°19' E 008°29'0 0.0
2018-Sep-16 09:30N 44°19' E 008°29'0 0.0
2018-Sep-16 09:03N 44°19' E 008°29'0 0.0
2018-Sep-16 09:00N 44°19' E 008°29'0 0.0
2018-Sep-16 08:30N 44°19' E 008°29'0 0.0
2018-Sep-16 08:03N 44°19' E 008°29'0 0.0
2018-Sep-16 08:00N 44°19' E 008°29'0 0.0
2018-Sep-16 07:30N 44°19' E 008°29'0 0.0
2018-Sep-16 07:03N 44°19' E 008°29'0 0.0
2018-Sep-16 07:00N 44°19' E 008°29'0 0.0
2018-Sep-16 06:30N 44°19' E 008°29'1 1.1
2018-Sep-16 06:03N 44°19' E 008°30'0 4.2
2018-Sep-16 06:00N 44°19' E 008°30'4 8.8
2018-Sep-16 05:31N 44°15' E 008°32'919.8
2018-Sep-16 05:04N 44°07' E 008°26'120.6
2018-Sep-16 05:01N 44°06' E 008°25'1020.5
2018-Sep-16 04:30N 43°57' E 008°18'920.3
2018-Sep-16 04:04N 43°50' E 008°11'120.4
2018-Sep-16 04:00N 43°49' E 008°10'1019.9
2018-Sep-16 03:31N 43°42' E 007°60'920.2
2018-Sep-16 03:03N 43°37' E 007°49'120.3
2018-Sep-16 03:01N 43°36' E 007°48'1020.3
2018-Sep-16 02:30N 43°30' E 007°37'920.2
2018-Sep-16 02:04N 43°25' E 007°27'120.3
2018-Sep-16 02:01N 43°24' E 007°26'1020.1
2018-Sep-16 01:31N 43°18' E 007°15'920.2
2018-Sep-16 01:03N 43°13' E 007°05'120.4
2018-Sep-16 01:00N 43°12' E 007°03'1020.5
2018-Sep-16 00:31N 43°06' E 006°52'1020.0
2018-Sep-15 23:59N 42°60' E 006°41'6420.4
2018-Sep-15 20:50N 42°29' E 005°24'920.9
2018-Sep-15 20:24N 42°25' E 005°13'720.9
2018-Sep-15 20:03N 42°21' E 005°04'121.2
2018-Sep-15 20:00N 42°21' E 005°03'1120.9
2018-Sep-15 19:30N 42°16' E 004°51'10921.0
2018-Sep-15 14:21N 41°25' E 002°42'720.3
2018-Sep-15 14:00N 41°22' E 002°34'1020.3
2018-Sep-15 13:31N 41°18' E 002°22'817.9
2018-Sep-15 13:03N 41°16' E 002°11'114.6
2018-Sep-15 13:00N 41°17' E 002°11'4 8.1
2018-Sep-15 12:30N 41°21' E 002°10'0 0.8
2018-Sep-15 12:02N 41°21' E 002°10'0 0.0
2018-Sep-15 11:59N 41°21' E 002°10'0 0.0
2018-Sep-15 11:29N 41°21' E 002°10'0 0.0
2018-Sep-15 11:02N 41°21' E 002°10'0 0.0
2018-Sep-15 10:59N 41°21' E 002°10'0 0.0
2018-Sep-15 10:29N 41°21' E 002°10'0 0.0
2018-Sep-15 10:02N 41°21' E 002°10'0 0.0
2018-Sep-15 09:59N 41°21' E 002°10'0 0.0
2018-Sep-15 09:29N 41°21' E 002°10'0 0.0
2018-Sep-15 09:02N 41°21' E 002°10'0 0.0
2018-Sep-15 08:59N 41°21' E 002°10'0 0.0
2018-Sep-15 08:29N 41°21' E 002°10'0 0.0
2018-Sep-15 08:02N 41°21' E 002°10'0 0.0
2018-Sep-15 07:59N 41°21' E 002°10'0 0.0
2018-Sep-15 07:29N 41°21' E 002°10'0 0.0
2018-Sep-15 07:02N 41°21' E 002°10'0 0.0
2018-Sep-15 06:59N 41°21' E 002°10'0 0.0
2018-Sep-15 06:29N 41°21' E 002°10'0 0.0
2018-Sep-15 06:02N 41°21' E 002°10'0 0.0
2018-Sep-15 05:59N 41°21' E 002°10'1 1.3
2018-Sep-15 05:30N 41°21' E 002°10'2 4.0
2018-Sep-15 05:03N 41°19' E 002°10'0 5.2
2018-Sep-15 05:00N 41°19' E 002°10'4 7.8
2018-Sep-15 04:30N 41°15' E 002°12'4 9.9
2018-Sep-15 04:03N 41°10' E 002°12'112.0
2018-Sep-15 04:00N 41°10' E 002°11'611.6
2018-Sep-15 03:30N 41°04' E 002°12'511.1
2018-Sep-15 03:03N 40°59' E 002°12'011.1
2018-Sep-15 03:00N 40°59' E 002°12'  

Dump ship's entire track history